Terminal Aerodrome Forecast
Issued by NWS

Home | Current Version | Previous Version | Text Only | Print | Product List | Glossary On
Versions: 1 2 3 4 5 6 7 8 9 10 11 12 13 14 15 16 17 18 19 20 21 22 23 24 25 26 27 28 29 30 31 32
000
FTUS46 KLOX 301847 AAA
TAFLAX
TAF AMD
KLAX 301847Z 3019/3124 25008KT 6SM HZ SCT010 SCT250
     FM302000 25012KT P6SM SCT010
     FM310200 25006KT 6SM BR BKN008
     FM310500 VRB03KT 1SM BR OVC004
     FM311200 10005KT 3SM BR OVC006
     FM311700 VRB03KT 5SM HZ BKN010
     FM312000 24010KT 6SM HZ SCT012=

USA.gov is the U.S. government's official web portal to all federal, state and local government web resources and services.